sensor_id;sensor_type;location;lat;lon;timestamp;pressure;altitude;pressure_sealevel;temperature;humidity
15694;BME280;7947;48.834;9.132;2023-11-19T00:02:46;98107.31;;;9.61;100.00
15694;BME280;7947;48.834;9.132;2023-11-19T00:05:52;98104.09;;;9.69;100.00
15694;BME280;7947;48.834;9.132;2023-11-19T00:08:57;98089.88;;;9.74;100.00
15694;BME280;7947;48.834;9.132;2023-11-19T00:12:02;98076.22;;;9.70;100.00
15694;BME280;7947;48.834;9.132;2023-11-19T00:15:06;98079.16;;;9.74;100.00
15694;BME280;7947;48.834;9.132;2023-11-19T00:18:14;98073.00;;;9.78;100.00
15694;BME280;7947;48.834;9.132;2023-11-19T00:21:19;98063.88;;;9.94;100.00
15694;BME280;7947;48.834;9.132;2023-11-19T00:24:24;98060.94;;;9.96;100.00
15694;BME280;7947;48.834;9.132;2023-11-19T00:27:28;98053.94;;;9.95;100.00
15694;BME280;7947;48.834;9.132;2023-11-19T00:30:31;98063.03;;;9.99;100.00
15694;BME280;7947;48.834;9.132;2023-11-19T00:33:35;98053.41;;;10.08;100.00
15694;BME280;7947;48.834;9.132;2023-11-19T00:36:52;98049.66;;;10.14;100.00
15694;BME280;7947;48.834;9.132;2023-11-19T00:39:57;98046.94;;;10.19;100.00
15694;BME280;7947;48.834;9.132;2023-11-19T00:43:01;98047.19;;;10.23;100.00
15694;BME280;7947;48.834;9.132;2023-11-19T00:46:07;98044.50;;;10.28;100.00
15694;BME280;7947;48.834;9.132;2023-11-19T00:49:12;98041.84;;;10.28;100.00
15694;BME280;7947;48.834;9.132;2023-11-19T00:52:19;98034.59;;;10.23;100.00
15694;BME280;7947;48.834;9.132;2023-11-19T00:55:24;98020.66;;;10.26;100.00
15694;BME280;7947;48.834;9.132;2023-11-19T00:58:27;98022.22;;;10.32;100.00
15694;BME280;7947;48.834;9.132;2023-11-19T01:01:31;98032.94;;;10.37;100.00
15694;BME280;7947;48.834;9.132;2023-11-19T01:04:36;98035.34;;;10.39;100.00
15694;BME280;7947;48.834;9.132;2023-11-19T01:07:42;98019.25;;;10.39;100.00
15694;BME280;7947;48.834;9.132;2023-11-19T01:10:46;98027.31;;;10.34;100.00
15694;BME280;7947;48.834;9.132;2023-11-19T01:13:50;98018.19;;;10.35;100.00
15694;BME280;7947;48.834;9.132;2023-11-19T01:16:54;98029.72;;;10.35;100.00
15694;BME280;7947;48.834;9.132;2023-11-19T01:19:58;98029.16;;;10.38;100.00
15694;BME280;7947;48.834;9.132;2023-11-19T01:23:03;98020.06;;;10.39;100.00
15694;BME280;7947;48.834;9.132;2023-11-19T01:26:08;98015.75;;;10.38;100.00
15694;BME280;7947;48.834;9.132;2023-11-19T01:29:12;98018.44;;;10.38;100.00
15694;BME280;7947;48.834;9.132;2023-11-19T01:32:18;98019.50;;;10.42;100.00
15694;BME280;7947;48.834;9.132;2023-11-19T01:35:21;98020.03;;;10.44;100.00
15694;BME280;7947;48.834;9.132;2023-11-19T01:38:30;98010.63;;;10.47;100.00
15694;BME280;7947;48.834;9.132;2023-11-19T01:41:34;98003.59;;;10.56;100.00
15694;BME280;7947;48.834;9.132;2023-11-19T01:44:38;98004.19;;;10.53;100.00
15694;BME280;7947;48.834;9.132;2023-11-19T01:47:42;98007.69;;;10.48;100.00
15694;BME280;7947;48.834;9.132;2023-11-19T01:50:46;98003.13;;;10.49;100.00
15694;BME280;7947;48.834;9.132;2023-11-19T01:53:52;98000.44;;;10.49;100.00
15694;BME280;7947;48.834;9.132;2023-11-19T01:56:56;98006.06;;;10.47;100.00
15694;BME280;7947;48.834;9.132;2023-11-19T02:00:01;98011.69;;;10.46;100.00
15694;BME280;7947;48.834;9.132;2023-11-19T02:03:06;98005.53;;;10.45;100.00
15694;BME280;7947;48.834;9.132;2023-11-19T02:06:10;97997.47;;;10.50;100.00
15694;BME280;7947;48.834;9.132;2023-11-19T02:09:15;97996.94;;;10.48;100.00
15694;BME280;7947;48.834;9.132;2023-11-19T02:12:21;97998.81;;;10.48;100.00
15694;BME280;7947;48.834;9.132;2023-11-19T02:15:24;97995.59;;;10.51;100.00
15694;BME280;7947;48.834;9.132;2023-11-19T02:18:28;97992.41;;;10.49;100.00
15694;BME280;7947;48.834;9.132;2023-11-19T02:21:32;97985.41;;;10.48;100.00
15694;BME280;7947;48.834;9.132;2023-11-19T02:24:38;97985.66;;;10.51;100.00
15694;BME280;7947;48.834;9.132;2023-11-19T02:27:51;97986.19;;;10.53;100.00
15694;BME280;7947;48.834;9.132;2023-11-19T02:30:58;97981.09;;;10.52;100.00
15694;BME280;7947;48.834;9.132;2023-11-19T02:34:01;97978.94;;;10.54;100.00
15694;BME280;7947;48.834;9.132;2023-11-19T02:37:05;97979.75;;;10.54;100.00
15694;BME280;7947;48.834;9.132;2023-11-19T02:40:10;97981.34;;;10.55;100.00
15694;BME280;7947;48.834;9.132;2023-11-19T02:43:17;97980.03;;;10.53;100.00
15694;BME280;7947;48.834;9.132;2023-11-19T02:46:21;97991.00;;;10.56;100.00
15694;BME280;7947;48.834;9.132;2023-11-19T02:49:25;97994.22;;;10.58;100.00
15694;BME280;7947;48.834;9.132;2023-11-19T02:52:29;97983.72;;;10.62;100.00
15694;BME280;7947;48.834;9.132;2023-11-19T02:55:37;97988.81;;;10.63;100.00
15694;BME280;7947;48.834;9.132;2023-11-19T02:58:44;97979.69;;;10.64;100.00
15694;BME280;7947;48.834;9.132;2023-11-19T03:01:48;97978.84;;;10.69;100.00
15694;BME280;7947;48.834;9.132;2023-11-19T03:04:52;97987.69;;;10.69;100.00
15694;BME280;7947;48.834;9.132;2023-11-19T03:07:56;97993.84;;;10.75;100.00
15694;BME280;7947;48.834;9.132;2023-11-19T03:11:00;97983.63;;;10.77;100.00
15694;BME280;7947;48.834;9.132;2023-11-19T03:14:05;97984.44;;;10.77;100.00
15694;BME280;7947;48.834;9.132;2023-11-19T03:17:10;97993.81;;;10.80;100.00
15694;BME280;7947;48.834;9.132;2023-11-19T03:20:13;97990.59;;;10.78;100.00
15694;BME280;7947;48.834;9.132;2023-11-19T03:23:19;97988.47;;;10.75;100.00
15694;BME280;7947;48.834;9.132;2023-11-19T03:26:23;97995.16;;;10.77;100.00
15694;BME280;7947;48.834;9.132;2023-11-19T03:29:28;97993.00;;;10.79;100.00
15694;BME280;7947;48.834;9.132;2023-11-19T03:32:31;97990.84;;;10.81;100.00
15694;BME280;7947;48.834;9.132;2023-11-19T03:35:35;97973.19;;;10.70;100.00
15694;BME280;7947;48.834;9.132;2023-11-19T03:38:39;97974.81;;;10.71;100.00
15694;BME280;7947;48.834;9.132;2023-11-19T03:41:45;97976.97;;;10.69;100.00
15694;BME280;7947;48.834;9.132;2023-11-19T03:44:51;97974.88;;;10.66;100.00
15694;BME280;7947;48.834;9.132;2023-11-19T03:47:55;97970.28;;;10.67;100.00
15694;BME280;7947;48.834;9.132;2023-11-19T03:50:59;97975.66;;;10.67;100.00
15694;BME280;7947;48.834;9.132;2023-11-19T03:54:03;97964.13;;;10.66;100.00
15694;BME280;7947;48.834;9.132;2023-11-19T03:57:08;97951.22;;;10.68;100.00
15694;BME280;7947;48.834;9.132;2023-11-19T04:00:16;97938.63;;;10.69;100.00
15694;BME280;7947;48.834;9.132;2023-11-19T04:03:19;97934.59;;;10.71;100.00
15694;BME280;7947;48.834;9.132;2023-11-19T04:06:23;97931.34;;;10.74;100.00
15694;BME280;7947;48.834;9.132;2023-11-19T04:09:27;97937.75;;;10.78;100.00
15694;BME280;7947;48.834;9.132;2023-11-19T04:12:30;97947.13;;;10.81;100.00
15694;BME280;7947;48.834;9.132;2023-11-19T04:15:36;97951.66;;;10.85;100.00
15694;BME280;7947;48.834;9.132;2023-11-19T04:18:39;97937.44;;;10.85;100.00
15694;BME280;7947;48.834;9.132;2023-11-19T04:21:43;97939.53;;;10.88;100.00
15694;BME280;7947;48.834;9.132;2023-11-19T04:24:46;97948.09;;;10.95;100.00
15694;BME280;7947;48.834;9.132;2023-11-19T04:27:50;97953.09;;;11.02;100.00
15694;BME280;7947;48.834;9.132;2023-11-19T04:30:55;97940.44;;;11.07;100.00
15694;BME280;7947;48.834;9.132;2023-11-19T04:33:59;97927.53;;;11.09;100.00
15694;BME280;7947;48.834;9.132;2023-11-19T04:37:03;97931.78;;;11.15;100.00
15694;BME280;7947;48.834;9.132;2023-11-19T04:40:11;97951.91;;;11.18;100.00
15694;BME280;7947;48.834;9.132;2023-11-19T04:43:15;97944.88;;;11.22;100.00
15694;BME280;7947;48.834;9.132;2023-11-19T04:46:20;97944.31;;;11.25;100.00
15694;BME280;7947;48.834;9.132;2023-11-19T04:49:24;97940.25;;;11.27;100.00
15694;BME280;7947;48.834;9.132;2023-11-19T04:52:29;97946.97;;;11.30;100.00
15694;BME280;7947;48.834;9.132;2023-11-19T04:55:34;97946.38;;;11.33;100.00
15694;BME280;7947;48.834;9.132;2023-11-19T04:58:38;97947.94;;;11.39;100.00
15694;BME280;7947;48.834;9.132;2023-11-19T05:01:46;97953.53;;;11.42;100.00
15694;BME280;7947;48.834;9.132;2023-11-19T05:04:50;97942.84;;;11.37;100.00
15694;BME280;7947;48.834;9.132;2023-11-19T05:07:54;97940.97;;;11.38;100.00
15694;BME280;7947;48.834;9.132;2023-11-19T05:10:58;97939.34;;;11.42;100.00
15694;BME280;7947;48.834;9.132;2023-11-19T05:14:02;97947.09;;;11.43;100.00
15694;BME280;7947;48.834;9.132;2023-11-19T05:17:08;97942.75;;;11.47;100.00
15694;BME280;7947;48.834;9.132;2023-11-19T05:20:12;97946.00;;;11.44;100.00
15694;BME280;7947;48.834;9.132;2023-11-19T05:23:16;97948.69;;;11.44;100.00
15694;BME280;7947;48.834;9.132;2023-11-19T05:26:23;97947.84;;;11.49;100.00
15694;BME280;7947;48.834;9.132;2023-11-19T05:29:27;97961.19;;;11.54;100.00
15694;BME280;7947;48.834;9.132;2023-11-19T05:32:33;97951.50;;;11.58;100.00
15694;BME280;7947;48.834;9.132;2023-11-19T05:35:37;97961.09;;;11.64;100.00
15694;BME280;7947;48.834;9.132;2023-11-19T05:38:40;97946.63;;;11.60;100.00
15694;BME280;7947;48.834;9.132;2023-11-19T05:41:44;97950.94;;;11.61;100.00
15694;BME280;7947;48.834;9.132;2023-11-19T05:44:47;97946.59;;;11.65;100.00
15694;BME280;7947;48.834;9.132;2023-11-19T05:47:52;97935.88;;;11.60;100.00
15694;BME280;7947;48.834;9.132;2023-11-19T05:50:56;97936.41;;;11.62;100.00
15694;BME280;7947;48.834;9.132;2023-11-19T05:53:59;97932.09;;;11.66;100.00
15694;BME280;7947;48.834;9.132;2023-11-19T05:57:04;97915.34;;;11.74;100.00
15694;BME280;7947;48.834;9.132;2023-11-19T06:00:09;97924.00;;;11.71;100.00
15694;BME280;7947;48.834;9.132;2023-11-19T06:03:16;97917.75;;;11.75;100.00
15694;BME280;7947;48.834;9.132;2023-11-19T06:06:20;97926.16;;;11.69;100.00
15694;BME280;7947;48.834;9.132;2023-11-19T06:09:24;97933.16;;;11.65;100.00
15694;BME280;7947;48.834;9.132;2023-11-19T06:12:27;97942.03;;;11.65;100.00
15694;BME280;7947;48.834;9.132;2023-11-19T06:15:31;97940.38;;;11.69;100.00
15694;BME280;7947;48.834;9.132;2023-11-19T06:18:36;97948.09;;;11.76;100.00
15694;BME280;7947;48.834;9.132;2023-11-19T06:21:40;97954.53;;;11.75;100.00
15694;BME280;7947;48.834;9.132;2023-11-19T06:24:44;97963.78;;;11.69;100.00
15694;BME280;7947;48.834;9.132;2023-11-19T06:27:47;97955.94;;;11.72;100.00
15694;BME280;7947;48.834;9.132;2023-11-19T06:30:51;97951.84;;;11.75;100.00
15694;BME280;7947;48.834;9.132;2023-11-19T06:33:56;97962.56;;;11.80;100.00
15694;BME280;7947;48.834;9.132;2023-11-19T06:36:59;97968.75;;;11.81;100.00
15694;BME280;7947;48.834;9.132;2023-11-19T06:40:06;97975.41;;;11.83;100.00
15694;BME280;7947;48.834;9.132;2023-11-19T06:43:11;97974.63;;;11.83;100.00
15694;BME280;7947;48.834;9.132;2023-11-19T06:46:16;97972.94;;;11.87;100.00
15694;BME280;7947;48.834;9.132;2023-11-19T06:49:21;97972.69;;;11.88;100.00
15694;BME280;7947;48.834;9.132;2023-11-19T06:52:25;97970.75;;;11.94;100.00
15694;BME280;7947;48.834;9.132;2023-11-19T06:55:29;97985.19;;;11.98;100.00
15694;BME280;7947;48.834;9.132;2023-11-19T06:58:35;97982.84;;;11.91;100.00
15694;BME280;7947;48.834;9.132;2023-11-19T07:01:39;97982.53;;;11.98;100.00
15694;BME280;7947;48.834;9.132;2023-11-19T07:04:46;97975.75;;;12.00;100.00
15694;BME280;7947;48.834;9.132;2023-11-19T07:07:50;97970.44;;;11.95;100.00
15694;BME280;7947;48.834;9.132;2023-11-19T07:10:54;97967.97;;;11.99;100.00
15694;BME280;7947;48.834;9.132;2023-11-19T07:13:57;97970.63;;;12.04;100.00
15694;BME280;7947;48.834;9.132;2023-11-19T07:17:02;97972.78;;;12.02;100.00
15694;BME280;7947;48.834;9.132;2023-11-19T07:20:08;97974.34;;;12.08;100.00
15694;BME280;7947;48.834;9.132;2023-11-19T07:23:15;97968.44;;;12.06;100.00
15694;BME280;7947;48.834;9.132;2023-11-19T07:26:19;97964.66;;;12.07;100.00
15694;BME280;7947;48.834;9.132;2023-11-19T07:29:22;97982.44;;;12.03;100.00
15694;BME280;7947;48.834;9.132;2023-11-19T07:32:31;97990.28;;;11.99;100.00
15694;BME280;7947;48.834;9.132;2023-11-19T07:35:36;97990.56;;;11.98;100.00
15694;BME280;7947;48.834;9.132;2023-11-19T07:38:40;98003.22;;;11.97;100.00
15694;BME280;7947;48.834;9.132;2023-11-19T07:41:43;98000.75;;;12.01;100.00
15694;BME280;7947;48.834;9.132;2023-11-19T07:44:47;98001.25;;;12.03;100.00
15694;BME280;7947;48.834;9.132;2023-11-19T07:47:51;98002.06;;;12.03;100.00
15694;BME280;7947;48.834;9.132;2023-11-19T07:50:56;98004.41;;;12.10;100.00
15694;BME280;7947;48.834;9.132;2023-11-19T07:54:00;98008.91;;;12.14;100.00
15694;BME280;7947;48.834;9.132;2023-11-19T07:57:04;98015.53;;;12.22;100.00
15694;BME280;7947;48.834;9.132;2023-11-19T08:00:09;98022.41;;;12.33;100.00
15694;BME280;7947;48.834;9.132;2023-11-19T08:03:14;98015.34;;;12.37;100.00
15694;BME280;7947;48.834;9.132;2023-11-19T08:06:19;98006.28;;;12.33;100.00
15694;BME280;7947;48.834;9.132;2023-11-19T08:09:24;98003.06;;;12.31;100.00
15694;BME280;7947;48.834;9.132;2023-11-19T08:12:28;98009.53;;;12.30;100.00
15694;BME280;7947;48.834;9.132;2023-11-19T08:15:31;98013.97;;;12.39;100.00
15694;BME280;7947;48.834;9.132;2023-11-19T08:18:35;98013.94;;;12.44;100.00
15694;BME280;7947;48.834;9.132;2023-11-19T08:21:41;97998.28;;;12.46;100.00
15694;BME280;7947;48.834;9.132;2023-11-19T08:24:44;98018.13;;;12.50;100.00
15694;BME280;7947;48.834;9.132;2023-11-19T08:27:48;98018.59;;;12.57;100.00
15694;BME280;7947;48.834;9.132;2023-11-19T08:30:51;98013.13;;;12.62;100.00
15694;BME280;7947;48.834;9.132;2023-11-19T08:33:56;98012.03;;;12.63;100.00
15694;BME280;7947;48.834;9.132;2023-11-19T08:37:01;98019.00;;;12.64;100.00
15694;BME280;7947;48.834;9.132;2023-11-19T08:40:06;98019.47;;;12.72;100.00
15694;BME280;7947;48.834;9.132;2023-11-19T08:43:10;98029.84;;;12.78;100.00
15694;BME280;7947;48.834;9.132;2023-11-19T08:46:13;98031.81;;;12.91;100.00
15694;BME280;7947;48.834;9.132;2023-11-19T08:49:17;98022.28;;;12.99;99.77
15694;BME280;7947;48.834;9.132;2023-11-19T08:52:23;98008.47;;;13.05;99.38
15694;BME280;7947;48.834;9.132;2023-11-19T08:55:27;98018.94;;;13.07;99.80
15694;BME280;7947;48.834;9.132;2023-11-19T08:58:30;98017.13;;;13.21;98.54
15694;BME280;7947;48.834;9.132;2023-11-19T09:01:36;98012.22;;;13.23;97.56
15694;BME280;7947;48.834;9.132;2023-11-19T09:04:39;98022.50;;;13.21;97.92
15694;BME280;7947;48.834;9.132;2023-11-19T09:07:45;98020.09;;;13.19;98.25
15694;BME280;7947;48.834;9.132;2023-11-19T09:10:48;98026.13;;;13.30;98.32
15694;BME280;7947;48.834;9.132;2023-11-19T09:13:53;98027.16;;;13.47;97.79
15694;BME280;7947;48.834;9.132;2023-11-19T09:16:57;98018.91;;;13.57;97.17
15694;BME280;7947;48.834;9.132;2023-11-19T09:20:01;98031.06;;;13.55;97.13
15694;BME280;7947;48.834;9.132;2023-11-19T09:23:06;98024.19;;;13.49;97.42
15694;BME280;7947;48.834;9.132;2023-11-19T09:26:11;98033.34;;;13.48;96.66
15694;BME280;7947;48.834;9.132;2023-11-19T09:29:15;98041.53;;;13.43;97.52
15694;BME280;7947;48.834;9.132;2023-11-19T09:32:18;98042.91;;;13.40;97.92
15694;BME280;7947;48.834;9.132;2023-11-19T09:35:22;98047.81;;;13.38;97.78
15694;BME280;7947;48.834;9.132;2023-11-19T09:38:27;98040.53;;;13.39;97.50
15694;BME280;7947;48.834;9.132;2023-11-19T09:41:31;98040.53;;;13.39;97.27
15694;BME280;7947;48.834;9.132;2023-11-19T09:44:37;98033.59;;;13.65;97.58
15694;BME280;7947;48.834;9.132;2023-11-19T09:47:44;98033.56;;;14.24;94.09
15694;BME280;7947;48.834;9.132;2023-11-19T09:50:48;98042.88;;;14.45;92.84
15694;BME280;7947;48.834;9.132;2023-11-19T09:53:54;98034.47;;;14.47;92.17
15694;BME280;7947;48.834;9.132;2023-11-19T09:56:58;98036.28;;;14.52;90.28
15694;BME280;7947;48.834;9.132;2023-11-19T10:00:07;98045.13;;;14.66;91.05
15694;BME280;7947;48.834;9.132;2023-11-19T10:03:12;98035.06;;;14.93;88.50
15694;BME280;7947;48.834;9.132;2023-11-19T10:06:16;98038.50;;;14.85;88.58
15694;BME280;7947;48.834;9.132;2023-11-19T10:09:22;98041.69;;;14.87;88.25
15694;BME280;7947;48.834;9.132;2023-11-19T10:12:26;98027.16;;;15.41;86.88
15694;BME280;7947;48.834;9.132;2023-11-19T10:15:32;98035.72;;;15.79;83.58
15694;BME280;7947;48.834;9.132;2023-11-19T10:18:43;98028.91;;;15.90;81.58
15694;BME280;7947;48.834;9.132;2023-11-19T10:21:48;98021.34;;;16.00;81.77
15694;BME280;7947;48.834;9.132;2023-11-19T10:24:53;98025.94;;;16.39;80.88
15694;BME280;7947;48.834;9.132;2023-11-19T10:27:58;98020.63;;;16.99;76.14
15694;BME280;7947;48.834;9.132;2023-11-19T10:31:05;98030.19;;;16.96;75.20
15694;BME280;7947;48.834;9.132;2023-11-19T10:34:24;98036.66;;;16.53;76.95
15694;BME280;7947;48.834;9.132;2023-11-19T10:37:28;98034.56;;;16.10;79.05
15694;BME280;7947;48.834;9.132;2023-11-19T10:40:50;98023.66;;;15.85;79.29
15694;BME280;7947;48.834;9.132;2023-11-19T10:43:54;98026.09;;;16.03;79.09
15694;BME280;7947;48.834;9.132;2023-11-19T10:46:59;98015.13;;;16.00;79.56
15694;BME280;7947;48.834;9.132;2023-11-19T10:50:02;98016.41;;;16.02;78.82
15694;BME280;7947;48.834;9.132;2023-11-19T10:53:08;98029.09;;;15.93;77.43
15694;BME280;7947;48.834;9.132;2023-11-19T10:56:13;98024.13;;;15.87;77.91
15694;BME280;7947;48.834;9.132;2023-11-19T10:59:21;98022.25;;;15.96;76.93
15694;BME280;7947;48.834;9.132;2023-11-19T11:02:28;98031.72;;;15.76;76.97
15694;BME280;7947;48.834;9.132;2023-11-19T11:05:34;98022.59;;;15.64;76.53
15694;BME280;7947;48.834;9.132;2023-11-19T11:08:39;98032.66;;;15.50;76.39
15694;BME280;7947;48.834;9.132;2023-11-19T11:11:46;98019.03;;;15.32;77.86
15694;BME280;7947;48.834;9.132;2023-11-19T11:14:50;98018.84;;;15.29;77.39
15694;BME280;7947;48.834;9.132;2023-11-19T11:17:59;98021.72;;;15.32;77.23
15694;BME280;7947;48.834;9.132;2023-11-19T11:21:07;98015.66;;;15.27;76.08
15694;BME280;7947;48.834;9.132;2023-11-19T11:24:47;98017.16;;;15.19;76.09
15694;BME280;7947;48.834;9.132;2023-11-19T11:28:11;98013.91;;;15.09;76.14
15694;BME280;7947;48.834;9.132;2023-11-19T11:31:26;98009.91;;;15.06;76.51
15694;BME280;7947;48.834;9.132;2023-11-19T11:34:52;98002.13;;;15.05;77.06
15694;BME280;7947;48.834;9.132;2023-11-19T11:38:02;97996.06;;;15.44;75.30
15694;BME280;7947;48.834;9.132;2023-11-19T11:41:16;97988.84;;;15.92;73.54
15694;BME280;7947;48.834;9.132;2023-11-19T11:44:59;97979.94;;;17.42;67.06
15694;BME280;7947;48.834;9.132;2023-11-19T11:48:11;97984.13;;;17.05;66.96
15694;BME280;7947;48.834;9.132;2023-11-19T11:51:14;97982.81;;;16.51;68.19
15694;BME280;7947;48.834;9.132;2023-11-19T11:54:26;97979.03;;;16.04;70.37
15694;BME280;7947;48.834;9.132;2023-11-19T11:57:36;97979.56;;;16.23;71.87
15694;BME280;7947;48.834;9.132;2023-11-19T12:00:42;97975.66;;;17.15;66.72
15694;BME280;7947;48.834;9.132;2023-11-19T12:03:46;97963.41;;;18.19;63.29
15694;BME280;7947;48.834;9.132;2023-11-19T12:07:03;97963.44;;;18.10;64.16
15694;BME280;7947;48.834;9.132;2023-11-19T12:10:09;97965.22;;;18.85;61.31
15694;BME280;7947;48.834;9.132;2023-11-19T12:13:14;97967.34;;;19.00;60.05
15694;BME280;7947;48.834;9.132;2023-11-19T12:16:22;97969.59;;;19.31;59.45
15694;BME280;7947;48.834;9.132;2023-11-19T12:19:27;97967.19;;;19.50;58.31
15694;BME280;7947;48.834;9.132;2023-11-19T12:22:31;97979.13;;;19.04;59.66
15694;BME280;7947;48.834;9.132;2023-11-19T12:25:35;97962.28;;;18.90;60.11
15694;BME280;7947;48.834;9.132;2023-11-19T12:28:38;97949.75;;;18.98;58.03
15694;BME280;7947;48.834;9.132;2023-11-19T12:31:53;97953.81;;;19.12;54.73
15694;BME280;7947;48.834;9.132;2023-11-19T12:35:14;97931.53;;;19.75;52.85
15694;BME280;7947;48.834;9.132;2023-11-19T12:38:18;97921.09;;;19.77;51.79
15694;BME280;7947;48.834;9.132;2023-11-19T12:41:23;97927.31;;;19.21;52.29
15694;BME280;7947;48.834;9.132;2023-11-19T12:44:26;97917.63;;;18.79;54.98
15694;BME280;7947;48.834;9.132;2023-11-19T12:47:31;97917.13;;;18.44;57.49
15694;BME280;7947;48.834;9.132;2023-11-19T12:50:51;97917.00;;;18.12;57.78
15694;BME280;7947;48.834;9.132;2023-11-19T12:53:55;97904.81;;;17.88;58.46
15694;BME280;7947;48.834;9.132;2023-11-19T12:57:00;97913.34;;;17.70;59.28
15694;BME280;7947;48.834;9.132;2023-11-19T13:00:05;97921.25;;;17.37;58.84
15694;BME280;7947;48.834;9.132;2023-11-19T13:03:13;97920.53;;;17.11;58.80
15694;BME280;7947;48.834;9.132;2023-11-19T13:06:32;97908.56;;;17.03;59.84
15694;BME280;7947;48.834;9.132;2023-11-19T13:09:36;97925.97;;;16.85;59.21
15694;BME280;7947;48.834;9.132;2023-11-19T13:12:39;97932.34;;;16.81;59.43
15694;BME280;7947;48.834;9.132;2023-11-19T13:15:43;97923.91;;;16.74;61.15
15694;BME280;7947;48.834;9.132;2023-11-19T13:18:49;97918.50;;;16.74;59.90
15694;BME280;7947;48.834;9.132;2023-11-19T13:21:53;97917.22;;;16.63;59.51
15694;BME280;7947;48.834;9.132;2023-11-19T13:24:57;97930.06;;;16.32;61.40
15694;BME280;7947;48.834;9.132;2023-11-19T13:28:01;97922.38;;;16.08;61.68
15694;BME280;7947;48.834;9.132;2023-11-19T13:31:05;97920.72;;;15.90;63.47
15694;BME280;7947;48.834;9.132;2023-11-19T13:34:11;97902.28;;;15.92;62.91
15694;BME280;7947;48.834;9.132;2023-11-19T13:37:15;97912.63;;;15.90;63.21
15694;BME280;7947;48.834;9.132;2023-11-19T13:40:18;97901.81;;;15.90;63.67
15694;BME280;7947;48.834;9.132;2023-11-19T13:43:24;97905.31;;;15.90;63.37
15694;BME280;7947;48.834;9.132;2023-11-19T13:46:30;97891.78;;;15.99;62.85
15694;BME280;7947;48.834;9.132;2023-11-19T13:49:35;97878.63;;;16.06;63.65
15694;BME280;7947;48.834;9.132;2023-11-19T13:52:40;97884.97;;;16.01;63.30
15694;BME280;7947;48.834;9.132;2023-11-19T13:55:44;97885.13;;;15.96;63.67
15694;BME280;7947;48.834;9.132;2023-11-19T13:58:47;97888.94;;;15.95;64.34
15694;BME280;7947;48.834;9.132;2023-11-19T14:01:51;97876.03;;;15.92;60.51
15694;BME280;7947;48.834;9.132;2023-11-19T14:04:56;97896.72;;;15.88;57.63
15694;BME280;7947;48.834;9.132;2023-11-19T14:08:00;97902.72;;;15.85;57.27
15694;BME280;7947;48.834;9.132;2023-11-19T14:11:09;97893.03;;;15.84;55.00
15694;BME280;7947;48.834;9.132;2023-11-19T14:14:13;97884.59;;;15.86;55.04
15694;BME280;7947;48.834;9.132;2023-11-19T14:17:18;97881.22;;;15.72;56.67
15694;BME280;7947;48.834;9.132;2023-11-19T14:20:23;97891.09;;;15.68;57.42
15694;BME280;7947;48.834;9.132;2023-11-19T14:23:27;97885.81;;;15.54;57.25
15694;BME280;7947;48.834;9.132;2023-11-19T14:26:31;97878.31;;;15.51;55.97
15694;BME280;7947;48.834;9.132;2023-11-19T14:29:35;97885.47;;;15.56;56.07
15694;BME280;7947;48.834;9.132;2023-11-19T14:32:40;97882.56;;;15.44;57.07
15694;BME280;7947;48.834;9.132;2023-11-19T14:35:46;97882.31;;;15.31;58.52
15694;BME280;7947;48.834;9.132;2023-11-19T14:38:50;97879.59;;;15.31;59.03
15694;BME280;7947;48.834;9.132;2023-11-19T14:41:54;97874.78;;;15.20;59.64
15694;BME280;7947;48.834;9.132;2023-11-19T14:45:00;97879.00;;;15.04;61.63
15694;BME280;7947;48.834;9.132;2023-11-19T14:48:05;97886.63;;;15.02;61.78
15694;BME280;7947;48.834;9.132;2023-11-19T14:51:10;97880.81;;;14.86;63.33
15694;BME280;7947;48.834;9.132;2023-11-19T14:54:14;97894.88;;;14.75;63.85
15694;BME280;7947;48.834;9.132;2023-11-19T14:57:17;97890.88;;;14.72;63.45
15694;BME280;7947;48.834;9.132;2023-11-19T15:00:21;97878.66;;;14.75;63.85
15694;BME280;7947;48.834;9.132;2023-11-19T15:03:25;97888.75;;;14.69;64.18
15694;BME280;7947;48.834;9.132;2023-11-19T15:06:30;97879.72;;;14.65;64.56
15694;BME280;7947;48.834;9.132;2023-11-19T15:09:36;97889.03;;;14.59;64.87
15694;BME280;7947;48.834;9.132;2023-11-19T15:12:40;97894.72;;;14.58;64.44
15694;BME280;7947;48.834;9.132;2023-11-19T15:15:43;97891.84;;;14.54;64.31
15694;BME280;7947;48.834;9.132;2023-11-19T15:18:47;97887.38;;;14.50;64.54
15694;BME280;7947;48.834;9.132;2023-11-19T15:21:53;97895.66;;;14.53;62.71
15694;BME280;7947;48.834;9.132;2023-11-19T15:24:57;97903.56;;;14.50;62.44
15694;BME280;7947;48.834;9.132;2023-11-19T15:28:01;97898.25;;;14.44;62.54
15694;BME280;7947;48.834;9.132;2023-11-19T15:31:04;97897.22;;;14.32;62.48
15694;BME280;7947;48.834;9.132;2023-11-19T15:34:08;97909.00;;;14.22;64.04
15694;BME280;7947;48.834;9.132;2023-11-19T15:37:13;97902.81;;;14.22;62.97
15694;BME280;7947;48.834;9.132;2023-11-19T15:40:17;97903.50;;;14.14;63.80
15694;BME280;7947;48.834;9.132;2023-11-19T15:43:21;97908.81;;;14.05;64.31
15694;BME280;7947;48.834;9.132;2023-11-19T15:46:25;97902.31;;;14.06;64.41
15694;BME280;7947;48.834;9.132;2023-11-19T15:49:28;97901.94;;;13.99;64.42
15694;BME280;7947;48.834;9.132;2023-11-19T15:52:33;97908.81;;;13.92;65.25
15694;BME280;7947;48.834;9.132;2023-11-19T15:55:37;97893.97;;;13.81;65.69
15694;BME280;7947;48.834;9.132;2023-11-19T15:58:41;97903.94;;;13.80;66.09
15694;BME280;7947;48.834;9.132;2023-11-19T16:01:44;97901.66;;;13.74;66.70
15694;BME280;7947;48.834;9.132;2023-11-19T16:04:48;97887.59;;;13.63;66.88
15694;BME280;7947;48.834;9.132;2023-11-19T16:07:54;97891.28;;;13.53;68.15
15694;BME280;7947;48.834;9.132;2023-11-19T16:10:57;97892.59;;;13.56;68.08
15694;BME280;7947;48.834;9.132;2023-11-19T16:14:01;97900.28;;;13.49;68.24
15694;BME280;7947;48.834;9.132;2023-11-19T16:17:05;97893.66;;;13.41;69.22
15694;BME280;7947;48.834;9.132;2023-11-19T16:20:10;97896.97;;;13.38;69.20
15694;BME280;7947;48.834;9.132;2023-11-19T16:23:15;97900.78;;;13.37;69.67
15694;BME280;7947;48.834;9.132;2023-11-19T16:26:19;97908.22;;;13.27;70.47
15694;BME280;7947;48.834;9.132;2023-11-19T16:29:23;97918.00;;;13.23;70.80